createdAt,value
2019-01-18T00:00:30.474Z,39.80
2019-01-18T00:02:59.047Z,36.50
2019-01-18T00:05:27.763Z,34.90
2019-01-18T00:07:56.325Z,33.60
2019-01-18T00:10:25.211Z,32.60
2019-01-18T00:12:53.763Z,33.20
2019-01-18T00:15:22.781Z,31.70
2019-01-18T00:17:51.403Z,29.30
2019-01-18T00:20:20.465Z,31.40
2019-01-18T00:22:49.485Z,32.10
2019-01-18T00:25:18.187Z,32.40
2019-01-18T00:27:46.743Z,32.90
2019-01-18T00:30:20.234Z,35.00
2019-01-18T00:32:48.883Z,35.40
2019-01-18T00:35:17.813Z,30.60
2019-01-18T00:37:46.437Z,32.70
2019-01-18T00:40:17.841Z,32.50
2019-01-18T00:42:46.469Z,31.80
2019-01-18T00:45:18.279Z,31.70
2019-01-18T00:47:46.837Z,28.70
2019-01-18T00:50:18.123Z,28.80
2019-01-18T00:52:46.795Z,26.00
2019-01-18T00:55:15.887Z,23.30
2019-01-18T00:57:44.970Z,25.50
2019-01-18T01:00:17.773Z,24.90
2019-01-18T01:02:46.397Z,24.10
2019-01-18T01:05:15.755Z,25.50
2019-01-18T01:07:44.723Z,26.70
2019-01-18T01:10:13.948Z,27.50
2019-01-18T01:12:42.619Z,26.10
2019-01-18T01:15:15.827Z,23.90
2019-01-18T01:17:45.289Z,25.90
2019-01-18T01:20:17.084Z,25.50
2019-01-18T01:22:45.661Z,26.50
2019-01-18T01:25:14.869Z,27.20
2019-01-18T01:27:43.774Z,26.30
2019-01-18T01:30:21.253Z,23.30
2019-01-18T01:32:49.960Z,24.50
2019-01-18T01:35:19.255Z,23.30
2019-01-18T01:37:47.863Z,23.20
2019-01-18T01:40:21.937Z,23.10
2019-01-18T01:42:50.733Z,21.70
2019-01-18T01:45:19.870Z,20.00
2019-01-18T01:47:48.507Z,22.00
2019-01-18T01:50:20.164Z,21.00
2019-01-18T01:52:48.891Z,21.20
2019-01-18T01:55:17.940Z,23.10
2019-01-18T01:57:46.866Z,22.90
2019-01-18T02:00:23.834Z,21.30
2019-01-18T02:02:52.475Z,23.00
2019-01-18T02:05:21.177Z,22.20
2019-01-18T02:07:50.597Z,23.10
2019-01-18T02:10:20.022Z,21.10
2019-01-18T02:12:49.368Z,21.80
2019-01-18T02:15:20.741Z,21.00
2019-01-18T02:17:49.360Z,20.70
2019-01-18T02:20:19.960Z,18.40
2019-01-18T02:22:49.192Z,16.30
2019-01-18T02:25:18.093Z,16.50
2019-01-18T02:27:47.547Z,17.30
2019-01-18T02:30:21.995Z,13.00
2019-01-18T02:32:50.873Z,16.00
2019-01-18T02:35:19.787Z,11.80
2019-01-18T02:37:48.346Z,12.70
2019-01-18T02:40:17.039Z,14.20
2019-01-18T02:42:46.357Z,15.80
2019-01-18T02:45:17.876Z,17.50
2019-01-18T02:47:47.166Z,13.90
2019-01-18T02:50:15.978Z,14.70
2019-01-18T02:52:44.745Z,13.10
2019-01-18T02:55:13.837Z,12.60
2019-01-18T02:57:43.143Z,14.60
2019-01-18T03:00:22.911Z,14.60
2019-01-18T03:02:52.192Z,14.90
2019-01-18T03:05:23.561Z,15.40
2019-01-18T03:07:53.449Z,13.40
2019-01-18T03:10:24.551Z,13.80
2019-01-18T03:12:53.485Z,14.30
2019-01-18T03:15:22.197Z,12.90
2019-01-18T03:17:51.064Z,14.40
2019-01-18T03:20:20.769Z,14.00
2019-01-18T03:22:49.674Z,14.20
2019-01-18T03:25:23.682Z,14.70
2019-01-18T03:27:52.763Z,16.50
2019-01-18T03:30:21.628Z,16.10
2019-01-18T03:32:50.777Z,16.70
2019-01-18T03:35:21.258Z,16.00
2019-01-18T03:37:50.183Z,13.10
2019-01-18T03:40:20.465Z,15.30
2019-01-18T03:42:49.805Z,16.20
2019-01-18T03:45:21.921Z,16.00
2019-01-18T03:47:50.851Z,15.40
2019-01-18T03:50:21.960Z,15.00
2019-01-18T03:52:50.889Z,15.90
2019-01-18T03:55:19.586Z,17.20
2019-01-18T03:57:48.471Z,16.60
2019-01-18T04:00:28.197Z,17.40
2019-01-18T04:02:57.931Z,17.40
2019-01-18T04:05:26.809Z,16.50
2019-01-18T04:07:55.450Z,17.40
2019-01-18T04:10:24.595Z,17.40
2019-01-18T04:12:53.479Z,17.40
2019-01-18T04:15:24.045Z,15.80
2019-01-18T04:17:53.118Z,17.40
2019-01-18T04:20:22.819Z,17.50
2019-01-18T04:22:52.168Z,17.40
2019-01-18T04:25:22.445Z,16.20
2019-01-18T04:27:51.748Z,16.20
2019-01-18T04:30:22.494Z,15.60
2019-01-18T04:32:51.362Z,15.00
2019-01-18T04:35:20.472Z,16.30
2019-01-18T04:37:49.760Z,17.30
2019-01-18T04:40:23.596Z,17.30
2019-01-18T04:42:52.872Z,16.40
2019-01-18T04:45:22.060Z,17.30
2019-01-18T04:47:51.702Z,17.00
2019-01-18T04:50:25.295Z,14.10
2019-01-18T04:52:54.171Z,14.00
2019-01-18T04:55:23.428Z,13.40
2019-01-18T04:57:52.416Z,12.20
2019-01-18T05:00:29.648Z,11.30
2019-01-18T05:02:58.734Z,11.40
2019-01-18T05:05:27.738Z,7.80
2019-01-18T05:07:56.734Z,6.70
2019-01-18T05:10:32.171Z,7.30
2019-01-18T05:13:01.156Z,8.10
2019-01-18T05:15:31.744Z,5.40
2019-01-18T05:18:00.680Z,5.40
2019-01-18T05:20:29.471Z,5.40
2019-01-18T05:22:58.260Z,6.80
2019-01-18T05:25:26.816Z,5.40
2019-01-18T05:27:55.379Z,5.30
2019-01-18T05:30:26.783Z,6.30
2019-01-18T05:32:55.465Z,5.50
2019-01-18T05:35:24.559Z,6.50
2019-01-18T05:37:53.180Z,5.20
2019-01-18T05:40:23.445Z,5.20
2019-01-18T05:42:52.063Z,6.60
2019-01-18T05:45:22.817Z,7.00
2019-01-18T05:47:51.903Z,8.90
2019-01-18T05:50:23.845Z,7.10
2019-01-18T05:52:52.583Z,7.20
2019-01-18T05:55:21.828Z,7.20
2019-01-18T05:57:50.933Z,7.60
2019-01-18T06:00:32.940Z,8.20
2019-01-18T06:03:01.505Z,6.80
2019-01-18T06:05:31.733Z,7.80
2019-01-18T06:08:00.294Z,8.80
2019-01-18T06:10:29.099Z,9.50
2019-01-18T06:12:57.655Z,10.10
2019-01-18T06:15:26.473Z,10.90
2019-01-18T06:17:55.094Z,11.50
2019-01-18T06:20:23.846Z,12.80
2019-01-18T06:22:52.406Z,10.90
2019-01-18T06:25:21.230Z,13.10
2019-01-18T06:27:49.830Z,12.80
2019-01-18T06:30:20.442Z,13.70
2019-01-18T06:32:49.071Z,15.00
2019-01-18T06:35:17.696Z,15.50
2019-01-18T06:37:46.506Z,15.10
2019-01-18T06:40:17.504Z,14.60
2019-01-18T06:42:46.517Z,13.90
2019-01-18T06:45:20.670Z,10.70
2019-01-18T06:47:49.423Z,10.70
2019-01-18T06:50:19.551Z,10.70
2019-01-18T06:52:48.643Z,10.60
2019-01-18T06:55:17.350Z,11.30
2019-01-18T06:57:47.421Z,10.50
2019-01-18T07:00:24.542Z,10.80
2019-01-18T07:02:53.409Z,12.10
2019-01-18T07:05:22.101Z,10.50
2019-01-18T07:07:50.994Z,10.30
2019-01-18T07:10:21.887Z,10.40
2019-01-18T07:12:51.230Z,10.40
2019-01-18T07:15:20.114Z,8.60
2019-01-18T07:17:48.818Z,9.20
2019-01-18T07:20:19.510Z,9.30
2019-01-18T07:22:48.419Z,8.40
2019-01-18T07:25:20.054Z,8.00
2019-01-18T07:27:49.084Z,7.20
2019-01-18T07:30:23.241Z,7.00
2019-01-18T07:32:51.978Z,8.70
2019-01-18T07:35:20.537Z,8.00
2019-01-18T07:37:49.080Z,6.70
2019-01-18T07:40:18.058Z,4.70
2019-01-18T07:42:46.598Z,4.80
2019-01-18T07:45:18.530Z,4.80
2019-01-18T07:47:47.327Z,4.80
2019-01-18T07:50:19.991Z,2.30
2019-01-18T07:52:47.084Z,2.20
2019-01-18T07:55:15.828Z,1.40
2019-01-18T07:57:44.374Z,1.90
2019-01-18T08:00:16.534Z,1.30
2019-01-18T08:02:45.360Z,2.70
2019-01-18T08:05:15.138Z,1.00
2019-01-18T08:07:43.932Z,1.40
2019-01-18T08:10:15.420Z,2.20
2019-01-18T08:12:44.170Z,1.00
2019-01-18T08:15:21.556Z,1.00
2019-01-18T08:17:50.244Z,1.00
2019-01-18T08:20:25.120Z,1.00
2019-01-18T08:22:55.404Z,1.00
2019-01-18T08:25:24.693Z,1.00
2019-01-18T08:27:53.491Z,1.00
2019-01-18T08:30:24.484Z,1.00
2019-01-18T08:32:53.405Z,1.00
2019-01-18T08:35:23.298Z,1.00
2019-01-18T08:37:52.626Z,1.00
2019-01-18T08:40:26.944Z,1.00
2019-01-18T08:42:55.729Z,1.00
2019-01-18T08:45:27.844Z,1.00
2019-01-18T08:47:56.579Z,1.00
2019-01-18T08:50:25.272Z,1.00
2019-01-18T08:52:54.156Z,1.00
2019-01-18T08:55:22.920Z,1.00
2019-01-18T08:57:51.740Z,1.00
2019-01-18T09:00:23.460Z,1.00
2019-01-18T09:02:52.182Z,1.00
2019-01-18T09:05:23.075Z,1.00
2019-01-18T09:07:52.208Z,1.00
2019-01-18T09:10:24.210Z,1.00
2019-01-18T09:12:53.075Z,1.00
2019-01-18T09:15:21.696Z,1.00
2019-01-18T09:17:50.634Z,1.00
2019-01-18T09:20:21.790Z,1.00
2019-01-18T09:22:50.479Z,1.00
2019-01-18T09:25:19.774Z,1.00
2019-01-18T09:27:48.392Z,1.00
2019-01-18T09:30:19.648Z,1.00
2019-01-18T09:32:49.026Z,1.00
2019-01-18T09:35:20.342Z,1.00
2019-01-18T09:37:48.888Z,1.00
2019-01-18T09:40:23.623Z,1.00
2019-01-18T09:42:52.872Z,1.00
2019-01-18T09:45:21.437Z,1.00
2019-01-18T09:47:50.231Z,1.00
2019-01-18T09:50:21.796Z,1.00
2019-01-18T09:52:50.440Z,1.00
2019-01-18T09:55:19.510Z,1.00
2019-01-18T09:57:48.326Z,1.00
2019-01-18T10:00:19.908Z,1.00
2019-01-18T10:02:48.546Z,1.00
2019-01-18T10:05:17.384Z,1.00
2019-01-18T10:07:46.081Z,1.00
2019-01-18T10:10:19.876Z,1.00
2019-01-18T10:12:49.588Z,1.00
2019-01-18T10:15:26.662Z,1.00
2019-01-18T10:18:00.648Z,1.00
2019-01-18T10:20:25.901Z,1.00
2019-01-18T10:22:54.972Z,1.00
2019-01-18T10:25:23.600Z,1.00
2019-01-18T10:27:52.224Z,1.00
2019-01-18T10:30:28.836Z,1.00
2019-01-18T10:32:57.707Z,1.00
2019-01-18T10:35:27.404Z,1.00
2019-01-18T10:37:56.312Z,1.00
2019-01-18T10:40:25.098Z,1.00
2019-01-18T10:42:55.553Z,1.00
2019-01-18T10:45:24.326Z,1.00
2019-01-18T10:47:52.876Z,1.00
2019-01-18T10:50:30.400Z,1.00
2019-01-18T10:52:59.481Z,1.00
2019-01-18T10:55:28.040Z,1.00
2019-01-18T10:57:57.057Z,1.00
2019-01-18T11:00:30.223Z,1.00
2019-01-18T11:02:59.059Z,1.00
2019-01-18T11:05:27.952Z,1.00
2019-01-18T11:07:56.928Z,1.00
2019-01-18T11:10:25.620Z,1.00
2019-01-18T11:12:54.495Z,1.00
2019-01-18T11:15:28.086Z,1.00
2019-01-18T11:17:57.208Z,1.00
2019-01-18T11:20:28.671Z,1.00
2019-01-18T11:22:59.188Z,1.00
2019-01-18T11:25:31.854Z,1.00
2019-01-18T11:27:58.693Z,1.00
2019-01-18T11:30:27.386Z,1.00
2019-01-18T11:32:56.275Z,1.00
2019-01-18T11:35:24.832Z,1.00
2019-01-18T11:37:54.259Z,1.00
2019-01-18T11:40:24.145Z,1.00
2019-01-18T11:42:52.986Z,1.00
2019-01-18T11:45:21.654Z,1.00
2019-01-18T11:47:50.966Z,1.00
2019-01-18T11:50:22.429Z,1.00
2019-01-18T11:52:51.288Z,1.00
2019-01-18T11:55:19.921Z,1.00
2019-01-18T11:57:48.871Z,1.00
2019-01-18T12:00:19.962Z,1.00
2019-01-18T12:02:48.892Z,1.00
2019-01-18T12:05:17.520Z,1.00
2019-01-18T12:07:46.424Z,1.00
2019-01-18T12:10:18.645Z,1.00
2019-01-18T12:12:47.335Z,1.00
2019-01-18T12:15:16.221Z,1.00
2019-01-18T12:17:44.850Z,1.00
2019-01-18T12:20:22.403Z,1.00
2019-01-18T12:22:51.089Z,1.00
2019-01-18T12:25:20.195Z,1.00
2019-01-18T12:27:48.804Z,1.00
2019-01-18T12:30:23.283Z,1.00
2019-01-18T12:32:51.936Z,1.00
2019-01-18T12:35:20.859Z,1.00
2019-01-18T12:37:50.385Z,1.00
2019-01-18T12:40:18.940Z,1.00
2019-01-18T12:42:47.948Z,1.00
2019-01-18T12:45:19.285Z,1.00
2019-01-18T12:47:47.996Z,1.00
2019-01-18T12:50:22.468Z,1.00
2019-01-18T12:52:51.103Z,1.00
2019-01-18T12:55:19.788Z,1.00
2019-01-18T12:57:48.872Z,1.00
2019-01-18T13:00:20.503Z,1.00
2019-01-18T13:02:49.519Z,1.00
2019-01-18T13:05:21.025Z,1.00
2019-01-18T13:07:49.860Z,1.00
2019-01-18T13:10:18.413Z,1.00
2019-01-18T13:12:47.544Z,1.00
2019-01-18T13:15:28.041Z,1.00
2019-01-18T13:17:56.990Z,1.00
2019-01-18T13:20:25.676Z,1.00
2019-01-18T13:22:54.779Z,1.00
2019-01-18T13:25:23.663Z,1.00
2019-01-18T13:27:52.213Z,1.00
2019-01-18T13:30:21.829Z,1.00
2019-01-18T13:32:50.741Z,1.00
2019-01-18T13:35:19.729Z,1.00
2019-01-18T13:37:48.530Z,1.00
2019-01-18T13:40:19.637Z,1.00
2019-01-18T13:42:48.771Z,1.00
2019-01-18T13:45:17.469Z,1.00
2019-01-18T13:47:47.308Z,1.00
2019-01-18T13:50:19.886Z,1.00
2019-01-18T13:52:49.056Z,1.00
2019-01-18T13:55:23.481Z,1.00
2019-01-18T13:57:52.350Z,1.00
2019-01-18T14:00:21.244Z,1.00
2019-01-18T14:02:50.295Z,1.00
2019-01-18T14:05:19.143Z,1.00
2019-01-18T14:07:47.955Z,1.00
2019-01-18T14:10:33.346Z,1.00
2019-01-18T14:13:02.298Z,1.00
2019-01-18T14:15:30.924Z,1.00
2019-01-18T14:17:59.857Z,1.00
2019-01-18T14:20:32.478Z,1.00
2019-01-18T14:23:01.326Z,1.00
2019-01-18T14:25:29.979Z,1.00
2019-01-18T14:27:58.906Z,1.00
2019-01-18T14:30:28.799Z,1.00
2019-01-18T14:32:58.139Z,1.00
2019-01-18T14:35:28.368Z,1.00
2019-01-18T14:37:57.519Z,1.00
2019-01-18T14:40:26.062Z,1.00
2019-01-18T14:42:55.868Z,1.00
2019-01-18T14:45:37.781Z,1.00
2019-01-18T14:48:06.823Z,1.00
2019-01-18T14:50:35.733Z,1.00
2019-01-18T14:53:05.075Z,1.00
2019-01-18T14:55:34.483Z,1.00
2019-01-18T14:58:04.866Z,1.00
2019-01-18T15:00:35.507Z,1.00
2019-01-18T15:03:04.785Z,1.00
2019-01-18T15:05:33.416Z,1.00
2019-01-18T15:08:02.303Z,1.00
2019-01-18T15:10:33.579Z,1.00
2019-01-18T15:13:07.721Z,1.00
2019-01-18T15:15:36.493Z,1.00
2019-01-18T15:18:05.813Z,1.00
2019-01-18T15:20:34.929Z,1.00
2019-01-18T15:23:03.785Z,1.00
2019-01-18T15:25:32.410Z,1.00
2019-01-18T15:28:01.572Z,1.00
2019-01-18T15:30:32.471Z,1.00
2019-01-18T15:33:01.394Z,1.00
2019-01-18T15:35:32.438Z,1.00
2019-01-18T15:38:01.423Z,1.00
2019-01-18T15:40:33.304Z,1.00
2019-01-18T15:43:02.676Z,1.00
2019-01-18T15:45:31.303Z,1.00
2019-01-18T15:48:01.399Z,1.00
2019-01-18T15:50:32.752Z,1.00
2019-01-18T15:53:01.450Z,1.00
2019-01-18T15:55:31.029Z,1.00
2019-01-18T15:57:59.685Z,1.00
2019-01-18T16:00:33.941Z,1.00
2019-01-18T16:03:02.829Z,1.00
2019-01-18T16:05:31.638Z,1.00
2019-01-18T16:08:00.338Z,1.00
2019-01-18T16:10:29.297Z,1.00
2019-01-18T16:12:58.264Z,1.00
2019-01-18T16:15:32.753Z,1.00
2019-01-18T16:18:02.249Z,1.00
2019-01-18T16:20:31.003Z,1.00
2019-01-18T16:22:59.637Z,1.00
2019-01-18T16:25:30.252Z,1.00
2019-01-18T16:27:58.825Z,1.00
2019-01-18T16:30:28.014Z,1.00
2019-01-18T16:32:57.617Z,1.00
2019-01-18T16:35:26.804Z,1.00
2019-01-18T16:37:55.800Z,1.00
2019-01-18T16:40:27.651Z,1.00
2019-01-18T16:43:04.953Z,1.00
2019-01-18T16:45:34.047Z,1.00
2019-01-18T16:48:02.610Z,1.00
2019-01-18T16:50:31.164Z,1.00
2019-01-18T16:52:59.986Z,1.00
2019-01-18T16:55:28.608Z,1.00
2019-01-18T16:57:57.334Z,1.00
2019-01-18T17:00:28.985Z,1.00
2019-01-18T17:02:57.861Z,1.00
2019-01-18T17:05:26.549Z,1.00
2019-01-18T17:07:55.695Z,1.00
2019-01-18T17:10:24.255Z,1.00
2019-01-18T17:12:54.496Z,1.00
2019-01-18T17:15:23.169Z,1.00
2019-01-18T17:17:52.487Z,1.00
2019-01-18T17:20:42.474Z,1.00
2019-01-18T17:23:11.956Z,1.00
2019-01-18T17:25:40.527Z,1.00
2019-01-18T17:28:09.554Z,1.00
2019-01-18T17:30:38.182Z,1.00
2019-01-18T17:33:07.356Z,1.00
2019-01-18T17:35:56.962Z,1.00
2019-01-18T17:38:54.677Z,1.00
2019-01-18T17:41:55.520Z,1.00
2019-01-18T17:44:43.672Z,1.00
2019-01-18T17:47:15.688Z,1.00
2019-01-18T17:49:56.354Z,1.00
2019-01-18T17:52:31.008Z,1.00
2019-01-18T17:55:02.726Z,1.00
2019-01-18T17:58:04.745Z,1.00
2019-01-18T18:01:10.943Z,1.00
2019-01-18T18:03:43.642Z,1.00
2019-01-18T18:06:33.613Z,1.00
2019-01-18T18:09:08.418Z,1.00
2019-01-18T18:11:43.959Z,1.00
2019-01-18T18:14:27.928Z,1.00
2019-01-18T18:17:04.990Z,1.00
2019-01-18T18:19:42.879Z,1.00
2019-01-18T18:22:17.302Z,1.00
2019-01-18T18:24:51.925Z,1.00
2019-01-18T18:27:33.142Z,1.00
2019-01-18T18:30:16.751Z,1.00
2019-01-18T18:32:51.168Z,1.00
2019-01-18T18:35:59.394Z,1.00
2019-01-18T18:38:36.853Z,1.00
2019-01-18T18:41:28.074Z,1.00
2019-01-18T18:44:31.379Z,1.00
2019-01-18T18:47:19.926Z,1.00
2019-01-18T18:50:25.267Z,1.00
2019-01-18T18:53:08.936Z,1.00
2019-01-18T18:55:47.689Z,1.00
2019-01-18T18:58:24.950Z,1.00
2019-01-18T19:00:59.535Z,1.00
2019-01-18T19:03:49.215Z,1.00
2019-01-18T19:06:29.313Z,1.00
2019-01-18T19:09:21.973Z,1.00
2019-01-18T19:12:16.164Z,1.00
2019-01-18T19:15:02.294Z,1.00
2019-01-18T19:17:51.701Z,1.00
2019-01-18T19:20:32.419Z,1.00
2019-01-18T19:23:13.468Z,1.00
2019-01-18T19:26:03.140Z,1.00
2019-01-18T19:28:54.277Z,1.00
2019-01-18T19:31:46.230Z,1.00
2019-01-18T19:34:37.567Z,1.00
2019-01-18T19:37:09.600Z,1.00
2019-01-18T19:39:41.243Z,1.00
2019-01-18T19:42:32.888Z,1.00
2019-01-18T19:45:19.776Z,1.00
2019-01-18T19:47:54.331Z,1.00
2019-01-18T19:50:50.045Z,1.00
2019-01-18T19:53:28.349Z,1.00
2019-01-18T19:56:11.842Z,1.00
2019-01-18T19:59:01.764Z,1.00
2019-01-18T20:01:36.195Z,1.00
2019-01-18T20:04:11.701Z,1.00
2019-01-18T20:07:02.232Z,1.00
2019-01-18T20:09:34.317Z,1.00
2019-01-18T20:12:23.901Z,1.00
2019-01-18T20:14:55.731Z,1.00
2019-01-18T20:17:27.574Z,1.00
2019-01-18T20:20:08.391Z,1.00
2019-01-18T20:22:46.449Z,1.00
2019-01-18T20:25:21.516Z,1.00
2019-01-18T20:27:55.800Z,1.00
2019-01-18T20:30:45.706Z,1.00
2019-01-18T20:33:46.143Z,1.00
2019-01-18T20:36:40.365Z,1.00
2019-01-18T20:39:20.343Z,1.00
2019-01-18T20:42:19.166Z,1.00
2019-01-18T20:45:08.013Z,1.00
2019-01-18T20:47:59.330Z,1.00
2019-01-18T20:50:39.709Z,1.00
2019-01-18T20:53:30.992Z,1.00
2019-01-18T20:56:05.797Z,1.00
2019-01-18T20:58:46.386Z,1.00
2019-01-18T21:01:36.507Z,1.00
2019-01-18T21:04:29.063Z,1.00
2019-01-18T21:07:14.788Z,1.00
2019-01-18T21:10:03.004Z,1.00
2019-01-18T21:12:52.660Z,1.00
2019-01-18T21:15:33.460Z,1.00
2019-01-18T21:18:39.452Z,1.00
2019-01-18T21:21:17.430Z,1.00
2019-01-18T21:24:07.180Z,1.00
2019-01-18T21:26:55.276Z,1.00
2019-01-18T21:29:48.230Z,1.00
2019-01-18T21:32:26.061Z,1.00
2019-01-18T21:35:00.828Z,1.00
2019-01-18T21:37:51.910Z,1.00
2019-01-18T21:40:29.391Z,1.00
2019-01-18T21:43:19.970Z,1.00
2019-01-18T21:46:13.054Z,1.00
2019-01-18T21:49:02.909Z,1.00
2019-01-18T21:51:39.933Z,1.00
2019-01-18T21:54:23.004Z,1.00
2019-01-18T21:57:21.940Z,1.00
2019-01-18T22:00:13.085Z,1.00
2019-01-18T22:03:02.951Z,1.00
2019-01-18T22:05:57.041Z,1.00
2019-01-18T22:08:56.211Z,1.00
2019-01-18T22:11:31.013Z,1.00
2019-01-18T22:14:29.586Z,1.00
2019-01-18T22:17:13.460Z,1.00
2019-01-18T22:20:20.133Z,1.00
2019-01-18T22:23:19.464Z,1.00
2019-01-18T22:26:03.290Z,1.00
2019-01-18T22:28:37.965Z,1.00
2019-01-18T22:31:15.615Z,1.00
2019-01-18T22:33:56.408Z,1.00
2019-01-18T22:36:36.945Z,1.00
2019-01-18T22:39:17.389Z,1.00
2019-01-18T22:42:04.429Z,1.00
2019-01-18T22:44:50.869Z,1.00
2019-01-18T22:47:42.551Z,1.00
2019-01-18T22:50:16.979Z,1.00
2019-01-18T22:53:07.176Z,1.00
2019-01-18T22:55:53.632Z,1.00
2019-01-18T22:58:31.169Z,1.00
2019-01-18T23:01:18.863Z,1.00
2019-01-18T23:04:11.836Z,1.00
2019-01-18T23:07:04.551Z,1.00
2019-01-18T23:09:48.027Z,1.00
2019-01-18T23:12:29.101Z,1.00
2019-01-18T23:15:12.458Z,1.00
2019-01-18T23:17:52.671Z,1.00
2019-01-18T23:20:49.023Z,1.00
2019-01-18T23:23:20.661Z,1.00
2019-01-18T23:26:01.138Z,1.00
2019-01-18T23:28:52.084Z,1.00
2019-01-18T23:31:30.047Z,1.00
2019-01-18T23:34:10.815Z,1.00
2019-01-18T23:36:45.380Z,1.00
2019-01-18T23:39:35.462Z,1.00
2019-01-18T23:42:30.995Z,1.00
2019-01-18T23:45:05.593Z,1.00
2019-01-18T23:47:37.709Z,1.00
2019-01-18T23:50:12.118Z,1.00
2019-01-18T23:52:49.734Z,1.00
2019-01-18T23:55:33.859Z,1.00
2019-01-18T23:58:08.419Z,1.00
